sensor_id;sensor_type;location;lat;lon;timestamp;P1;durP1;ratioP1;P2;durP2;ratioP2
59756;SDS011;45631;51.962;5.974;2024-03-07T00:00:07;54.08;;;29.30;;
59756;SDS011;45631;51.962;5.974;2024-03-07T00:02:43;50.28;;;28.88;;
59756;SDS011;45631;51.962;5.974;2024-03-07T00:05:12;47.25;;;29.55;;
59756;SDS011;45631;51.962;5.974;2024-03-07T00:07:42;51.47;;;28.73;;
59756;SDS011;45631;51.962;5.974;2024-03-07T00:10:10;49.15;;;29.10;;
59756;SDS011;45631;51.962;5.974;2024-03-07T00:12:39;49.83;;;29.00;;
59756;SDS011;45631;51.962;5.974;2024-03-07T00:15:08;52.13;;;29.27;;
59756;SDS011;45631;51.962;5.974;2024-03-07T00:17:38;51.20;;;28.98;;
59756;SDS011;45631;51.962;5.974;2024-03-07T00:20:07;48.00;;;28.58;;
59756;SDS011;45631;51.962;5.974;2024-03-07T00:22:43;50.33;;;28.85;;
59756;SDS011;45631;51.962;5.974;2024-03-07T00:25:11;49.80;;;28.33;;
59756;SDS011;45631;51.962;5.974;2024-03-07T00:27:41;51.55;;;30.10;;
59756;SDS011;45631;51.962;5.974;2024-03-07T00:30:12;51.92;;;28.88;;
59756;SDS011;45631;51.962;5.974;2024-03-07T00:32:45;47.47;;;27.92;;
59756;SDS011;45631;51.962;5.974;2024-03-07T00:35:15;51.90;;;30.08;;
59756;SDS011;45631;51.962;5.974;2024-03-07T00:37:45;53.03;;;28.70;;
59756;SDS011;45631;51.962;5.974;2024-03-07T00:40:13;51.63;;;28.83;;
59756;SDS011;45631;51.962;5.974;2024-03-07T00:42:41;49.67;;;28.95;;
59756;SDS011;45631;51.962;5.974;2024-03-07T00:45:13;49.47;;;29.15;;
59756;SDS011;45631;51.962;5.974;2024-03-07T00:47:41;53.83;;;31.15;;
59756;SDS011;45631;51.962;5.974;2024-03-07T00:50:09;52.83;;;29.80;;
59756;SDS011;45631;51.962;5.974;2024-03-07T00:52:38;54.80;;;28.90;;
59756;SDS011;45631;51.962;5.974;2024-03-07T00:55:10;56.72;;;29.25;;
59756;SDS011;45631;51.962;5.974;2024-03-07T00:57:39;52.05;;;29.08;;
59756;SDS011;45631;51.962;5.974;2024-03-07T01:00:07;54.75;;;30.42;;
59756;SDS011;45631;51.962;5.974;2024-03-07T01:02:40;51.38;;;28.23;;
59756;SDS011;45631;51.962;5.974;2024-03-07T01:05:11;58.30;;;30.40;;
59756;SDS011;45631;51.962;5.974;2024-03-07T01:07:40;50.05;;;30.50;;
59756;SDS011;45631;51.962;5.974;2024-03-07T01:10:11;54.42;;;30.08;;
59756;SDS011;45631;51.962;5.974;2024-03-07T01:12:40;56.53;;;29.60;;
59756;SDS011;45631;51.962;5.974;2024-03-07T01:15:09;54.03;;;31.10;;
59756;SDS011;45631;51.962;5.974;2024-03-07T01:17:38;55.30;;;30.55;;
59756;SDS011;45631;51.962;5.974;2024-03-07T01:20:08;52.25;;;30.10;;
59756;SDS011;45631;51.962;5.974;2024-03-07T01:22:38;59.38;;;31.63;;
59756;SDS011;45631;51.962;5.974;2024-03-07T01:25:06;53.60;;;30.73;;
59756;SDS011;45631;51.962;5.974;2024-03-07T01:27:36;59.10;;;30.92;;
59756;SDS011;45631;51.962;5.974;2024-03-07T01:30:05;58.55;;;32.70;;
59756;SDS011;45631;51.962;5.974;2024-03-07T01:32:34;56.00;;;31.52;;
59756;SDS011;45631;51.962;5.974;2024-03-07T01:35:03;57.63;;;31.25;;
59756;SDS011;45631;51.962;5.974;2024-03-07T01:37:34;56.25;;;30.55;;
59756;SDS011;45631;51.962;5.974;2024-03-07T01:40:02;56.30;;;31.40;;
59756;SDS011;45631;51.962;5.974;2024-03-07T01:42:31;57.47;;;31.38;;
59756;SDS011;45631;51.962;5.974;2024-03-07T01:45:02;57.83;;;30.58;;
59756;SDS011;45631;51.962;5.974;2024-03-07T01:47:31;56.70;;;30.25;;
59756;SDS011;45631;51.962;5.974;2024-03-07T01:50:00;58.40;;;32.20;;
59756;SDS011;45631;51.962;5.974;2024-03-07T01:52:28;58.85;;;32.40;;
59756;SDS011;45631;51.962;5.974;2024-03-07T01:54:57;59.55;;;31.83;;
59756;SDS011;45631;51.962;5.974;2024-03-07T01:57:25;56.58;;;30.75;;
59756;SDS011;45631;51.962;5.974;2024-03-07T01:59:55;55.97;;;30.95;;
59756;SDS011;45631;51.962;5.974;2024-03-07T02:02:25;57.83;;;33.25;;
59756;SDS011;45631;51.962;5.974;2024-03-07T02:04:54;55.22;;;31.55;;
59756;SDS011;45631;51.962;5.974;2024-03-07T02:07:22;59.42;;;31.67;;
59756;SDS011;45631;51.962;5.974;2024-03-07T02:09:58;57.80;;;33.70;;
59756;SDS011;45631;51.962;5.974;2024-03-07T02:12:27;59.00;;;31.60;;
59756;SDS011;45631;51.962;5.974;2024-03-07T02:14:56;56.03;;;32.22;;
59756;SDS011;45631;51.962;5.974;2024-03-07T02:17:26;64.90;;;33.05;;
59756;SDS011;45631;51.962;5.974;2024-03-07T02:19:55;57.50;;;31.55;;
59756;SDS011;45631;51.962;5.974;2024-03-07T02:22:24;58.47;;;31.50;;
59756;SDS011;45631;51.962;5.974;2024-03-07T02:24:53;59.70;;;30.90;;
59756;SDS011;45631;51.962;5.974;2024-03-07T02:27:21;60.63;;;31.75;;
59756;SDS011;45631;51.962;5.974;2024-03-07T02:29:52;58.33;;;32.13;;
59756;SDS011;45631;51.962;5.974;2024-03-07T02:32:21;57.65;;;31.60;;
59756;SDS011;45631;51.962;5.974;2024-03-07T02:34:50;56.00;;;31.40;;
59756;SDS011;45631;51.962;5.974;2024-03-07T02:37:18;57.85;;;32.88;;
59756;SDS011;45631;51.962;5.974;2024-03-07T02:39:47;58.95;;;32.92;;
59756;SDS011;45631;51.962;5.974;2024-03-07T02:42:16;59.90;;;31.77;;
59756;SDS011;45631;51.962;5.974;2024-03-07T02:44:44;58.95;;;32.45;;
59756;SDS011;45631;51.962;5.974;2024-03-07T02:47:12;56.75;;;32.35;;
59756;SDS011;45631;51.962;5.974;2024-03-07T02:49:41;55.65;;;31.38;;
59756;SDS011;45631;51.962;5.974;2024-03-07T02:52:09;63.17;;;32.58;;
59756;SDS011;45631;51.962;5.974;2024-03-07T02:54:37;58.60;;;32.40;;
59756;SDS011;45631;51.962;5.974;2024-03-07T02:57:08;57.28;;;30.90;;
59756;SDS011;45631;51.962;5.974;2024-03-07T02:59:38;58.33;;;31.80;;
59756;SDS011;45631;51.962;5.974;2024-03-07T03:02:06;61.55;;;33.33;;
59756;SDS011;45631;51.962;5.974;2024-03-07T03:04:34;59.80;;;31.17;;
59756;SDS011;45631;51.962;5.974;2024-03-07T03:07:02;60.97;;;31.85;;
59756;SDS011;45631;51.962;5.974;2024-03-07T03:09:30;54.25;;;31.40;;
59756;SDS011;45631;51.962;5.974;2024-03-07T03:12:00;54.97;;;30.95;;
59756;SDS011;45631;51.962;5.974;2024-03-07T03:14:32;56.42;;;30.35;;
59756;SDS011;45631;51.962;5.974;2024-03-07T03:17:01;56.88;;;30.95;;
59756;SDS011;45631;51.962;5.974;2024-03-07T03:19:31;56.08;;;30.45;;
59756;SDS011;45631;51.962;5.974;2024-03-07T03:21:59;56.70;;;30.95;;
59756;SDS011;45631;51.962;5.974;2024-03-07T03:24:28;55.40;;;29.73;;
59756;SDS011;45631;51.962;5.974;2024-03-07T03:26:57;53.60;;;30.90;;
59756;SDS011;45631;51.962;5.974;2024-03-07T03:29:28;59.47;;;31.40;;
59756;SDS011;45631;51.962;5.974;2024-03-07T03:31:58;55.47;;;32.13;;
59756;SDS011;45631;51.962;5.974;2024-03-07T03:34:26;56.22;;;31.50;;
59756;SDS011;45631;51.962;5.974;2024-03-07T03:36:55;56.90;;;31.38;;
59756;SDS011;45631;51.962;5.974;2024-03-07T03:39:23;57.97;;;33.15;;
59756;SDS011;45631;51.962;5.974;2024-03-07T03:41:53;57.17;;;31.17;;
59756;SDS011;45631;51.962;5.974;2024-03-07T03:44:24;57.63;;;30.80;;
59756;SDS011;45631;51.962;5.974;2024-03-07T03:46:52;55.92;;;31.17;;
59756;SDS011;45631;51.962;5.974;2024-03-07T03:49:22;57.55;;;33.13;;
59756;SDS011;45631;51.962;5.974;2024-03-07T03:51:52;58.10;;;33.03;;
59756;SDS011;45631;51.962;5.974;2024-03-07T03:54:21;66.10;;;33.55;;
59756;SDS011;45631;51.962;5.974;2024-03-07T03:56:49;60.38;;;32.38;;
59756;SDS011;45631;51.962;5.974;2024-03-07T03:59:17;56.38;;;32.05;;
59756;SDS011;45631;51.962;5.974;2024-03-07T04:01:46;54.22;;;31.55;;
59756;SDS011;45631;51.962;5.974;2024-03-07T04:04:14;60.90;;;32.25;;
59756;SDS011;45631;51.962;5.974;2024-03-07T04:06:44;59.70;;;32.47;;
59756;SDS011;45631;51.962;5.974;2024-03-07T04:09:12;57.00;;;32.13;;
59756;SDS011;45631;51.962;5.974;2024-03-07T04:11:44;59.30;;;32.30;;
59756;SDS011;45631;51.962;5.974;2024-03-07T04:14:12;58.50;;;31.50;;
59756;SDS011;45631;51.962;5.974;2024-03-07T04:16:41;59.20;;;31.83;;
59756;SDS011;45631;51.962;5.974;2024-03-07T04:19:09;55.10;;;32.08;;
59756;SDS011;45631;51.962;5.974;2024-03-07T04:21:37;53.08;;;30.20;;
59756;SDS011;45631;51.962;5.974;2024-03-07T04:24:08;56.78;;;31.27;;
59756;SDS011;45631;51.962;5.974;2024-03-07T04:26:36;58.47;;;31.30;;
59756;SDS011;45631;51.962;5.974;2024-03-07T04:29:04;59.05;;;33.03;;
59756;SDS011;45631;51.962;5.974;2024-03-07T04:31:35;59.08;;;31.55;;
59756;SDS011;45631;51.962;5.974;2024-03-07T04:34:03;57.85;;;32.10;;
59756;SDS011;45631;51.962;5.974;2024-03-07T04:36:31;56.85;;;31.15;;
59756;SDS011;45631;51.962;5.974;2024-03-07T04:39:01;52.58;;;30.00;;
59756;SDS011;45631;51.962;5.974;2024-03-07T04:41:32;53.78;;;30.60;;
59756;SDS011;45631;51.962;5.974;2024-03-07T04:44:02;55.15;;;31.80;;
59756;SDS011;45631;51.962;5.974;2024-03-07T04:46:31;56.55;;;31.23;;
59756;SDS011;45631;51.962;5.974;2024-03-07T04:48:59;57.33;;;32.08;;
59756;SDS011;45631;51.962;5.974;2024-03-07T04:51:27;56.53;;;31.13;;
59756;SDS011;45631;51.962;5.974;2024-03-07T04:53:56;53.42;;;30.00;;
59756;SDS011;45631;51.962;5.974;2024-03-07T04:56:24;52.03;;;30.35;;
59756;SDS011;45631;51.962;5.974;2024-03-07T04:58:54;55.50;;;31.00;;
59756;SDS011;45631;51.962;5.974;2024-03-07T05:01:22;56.25;;;31.58;;
59756;SDS011;45631;51.962;5.974;2024-03-07T05:03:51;59.83;;;31.25;;
59756;SDS011;45631;51.962;5.974;2024-03-07T05:06:19;53.83;;;30.23;;
59756;SDS011;45631;51.962;5.974;2024-03-07T05:08:47;57.95;;;31.10;;
59756;SDS011;45631;51.962;5.974;2024-03-07T05:11:16;56.40;;;30.17;;
59756;SDS011;45631;51.962;5.974;2024-03-07T05:13:44;56.72;;;31.75;;
59756;SDS011;45631;51.962;5.974;2024-03-07T05:16:14;56.20;;;31.67;;
59756;SDS011;45631;51.962;5.974;2024-03-07T05:18:44;56.78;;;31.55;;
59756;SDS011;45631;51.962;5.974;2024-03-07T05:21:12;52.25;;;32.38;;
59756;SDS011;45631;51.962;5.974;2024-03-07T05:23:58;59.20;;;31.13;;
59756;SDS011;45631;51.962;5.974;2024-03-07T05:26:26;52.05;;;29.88;;
59756;SDS011;45631;51.962;5.974;2024-03-07T05:28:54;51.50;;;29.45;;
59756;SDS011;45631;51.962;5.974;2024-03-07T05:31:24;56.25;;;30.67;;
59756;SDS011;45631;51.962;5.974;2024-03-07T05:33:52;51.65;;;30.58;;
59756;SDS011;45631;51.962;5.974;2024-03-07T05:36:20;53.10;;;30.17;;
59756;SDS011;45631;51.962;5.974;2024-03-07T05:38:48;52.47;;;30.48;;
59756;SDS011;45631;51.962;5.974;2024-03-07T05:41:18;53.65;;;29.85;;
59756;SDS011;45631;51.962;5.974;2024-03-07T05:43:46;54.40;;;28.38;;
59756;SDS011;45631;51.962;5.974;2024-03-07T05:46:17;47.20;;;28.58;;
59756;SDS011;45631;51.962;5.974;2024-03-07T05:48:48;55.38;;;30.98;;
59756;SDS011;45631;51.962;5.974;2024-03-07T05:51:18;57.40;;;31.30;;
59756;SDS011;45631;51.962;5.974;2024-03-07T05:53:47;54.90;;;29.30;;
59756;SDS011;45631;51.962;5.974;2024-03-07T05:56:15;53.70;;;30.90;;
59756;SDS011;45631;51.962;5.974;2024-03-07T05:58:43;56.90;;;29.20;;
59756;SDS011;45631;51.962;5.974;2024-03-07T06:01:11;51.08;;;28.90;;
59756;SDS011;45631;51.962;5.974;2024-03-07T06:03:40;52.10;;;29.15;;
59756;SDS011;45631;51.962;5.974;2024-03-07T06:06:10;54.72;;;29.73;;
59756;SDS011;45631;51.962;5.974;2024-03-07T06:08:38;53.70;;;30.45;;
59756;SDS011;45631;51.962;5.974;2024-03-07T06:11:09;49.97;;;29.52;;
59756;SDS011;45631;51.962;5.974;2024-03-07T06:13:39;53.63;;;29.08;;
59756;SDS011;45631;51.962;5.974;2024-03-07T06:16:08;51.63;;;30.25;;
59756;SDS011;45631;51.962;5.974;2024-03-07T06:18:36;52.30;;;30.55;;
59756;SDS011;45631;51.962;5.974;2024-03-07T06:21:04;54.85;;;29.30;;
59756;SDS011;45631;51.962;5.974;2024-03-07T06:23:34;53.10;;;28.40;;
59756;SDS011;45631;51.962;5.974;2024-03-07T06:26:03;51.63;;;28.88;;
59756;SDS011;45631;51.962;5.974;2024-03-07T06:28:39;49.30;;;28.55;;
59756;SDS011;45631;51.962;5.974;2024-03-07T06:31:07;51.92;;;28.90;;
59756;SDS011;45631;51.962;5.974;2024-03-07T06:33:35;54.35;;;28.08;;
59756;SDS011;45631;51.962;5.974;2024-03-07T06:36:04;52.20;;;28.27;;
59756;SDS011;45631;51.962;5.974;2024-03-07T06:38:34;51.55;;;27.88;;
59756;SDS011;45631;51.962;5.974;2024-03-07T06:41:03;47.10;;;28.30;;
59756;SDS011;45631;51.962;5.974;2024-03-07T06:43:31;53.50;;;27.88;;
59756;SDS011;45631;51.962;5.974;2024-03-07T06:45:59;56.35;;;28.35;;
59756;SDS011;45631;51.962;5.974;2024-03-07T06:48:28;48.40;;;27.73;;
59756;SDS011;45631;51.962;5.974;2024-03-07T06:50:56;50.58;;;28.08;;
59756;SDS011;45631;51.962;5.974;2024-03-07T06:53:24;47.60;;;27.75;;
59756;SDS011;45631;51.962;5.974;2024-03-07T06:55:56;49.67;;;28.02;;
59756;SDS011;45631;51.962;5.974;2024-03-07T06:58:24;50.47;;;27.45;;
59756;SDS011;45631;51.962;5.974;2024-03-07T07:00:55;49.40;;;27.02;;
59756;SDS011;45631;51.962;5.974;2024-03-07T07:03:24;47.42;;;27.00;;
59756;SDS011;45631;51.962;5.974;2024-03-07T07:05:54;45.30;;;26.15;;
59756;SDS011;45631;51.962;5.974;2024-03-07T07:08:22;47.92;;;27.38;;
59756;SDS011;45631;51.962;5.974;2024-03-07T07:10:51;49.50;;;27.45;;
59756;SDS011;45631;51.962;5.974;2024-03-07T07:13:22;43.35;;;26.08;;
59756;SDS011;45631;51.962;5.974;2024-03-07T07:15:51;44.05;;;26.15;;
59756;SDS011;45631;51.962;5.974;2024-03-07T07:18:20;44.65;;;25.50;;
59756;SDS011;45631;51.962;5.974;2024-03-07T07:20:50;43.30;;;25.95;;
59756;SDS011;45631;51.962;5.974;2024-03-07T07:23:19;45.67;;;26.17;;
59756;SDS011;45631;51.962;5.974;2024-03-07T07:25:51;43.08;;;25.60;;
59756;SDS011;45631;51.962;5.974;2024-03-07T07:28:19;47.25;;;27.15;;
59756;SDS011;45631;51.962;5.974;2024-03-07T07:30:49;47.85;;;25.95;;
59756;SDS011;45631;51.962;5.974;2024-03-07T07:33:17;43.35;;;25.75;;
59756;SDS011;45631;51.962;5.974;2024-03-07T07:35:46;39.85;;;24.80;;
59756;SDS011;45631;51.962;5.974;2024-03-07T07:38:14;43.35;;;26.95;;
59756;SDS011;45631;51.962;5.974;2024-03-07T07:40:42;41.85;;;24.23;;
59756;SDS011;45631;51.962;5.974;2024-03-07T07:43:11;43.78;;;24.23;;
59756;SDS011;45631;51.962;5.974;2024-03-07T07:45:53;39.53;;;24.52;;
59756;SDS011;45631;51.962;5.974;2024-03-07T07:48:21;38.45;;;23.92;;
59756;SDS011;45631;51.962;5.974;2024-03-07T07:50:49;39.83;;;23.83;;
59756;SDS011;45631;51.962;5.974;2024-03-07T07:53:19;38.80;;;22.98;;
59756;SDS011;45631;51.962;5.974;2024-03-07T07:55:47;38.90;;;24.13;;
59756;SDS011;45631;51.962;5.974;2024-03-07T07:58:16;35.17;;;21.60;;
59756;SDS011;45631;51.962;5.974;2024-03-07T08:00:44;35.65;;;21.95;;
59756;SDS011;45631;51.962;5.974;2024-03-07T08:03:17;34.97;;;22.35;;
59756;SDS011;45631;51.962;5.974;2024-03-07T08:05:46;30.88;;;20.10;;
59756;SDS011;45631;51.962;5.974;2024-03-07T08:08:14;31.98;;;20.40;;
59756;SDS011;45631;51.962;5.974;2024-03-07T08:10:45;30.60;;;19.90;;
59756;SDS011;45631;51.962;5.974;2024-03-07T08:13:14;33.10;;;20.88;;
59756;SDS011;45631;51.962;5.974;2024-03-07T08:15:43;30.63;;;19.60;;
59756;SDS011;45631;51.962;5.974;2024-03-07T08:18:12;31.48;;;20.40;;
59756;SDS011;45631;51.962;5.974;2024-03-07T08:20:42;32.67;;;19.63;;
59756;SDS011;45631;51.962;5.974;2024-03-07T08:23:10;30.75;;;20.63;;
59756;SDS011;45631;51.962;5.974;2024-03-07T08:25:40;30.90;;;20.35;;
59756;SDS011;45631;51.962;5.974;2024-03-07T08:28:08;31.90;;;20.38;;
59756;SDS011;45631;51.962;5.974;2024-03-07T08:30:37;31.77;;;19.80;;
59756;SDS011;45631;51.962;5.974;2024-03-07T08:33:06;30.33;;;19.48;;
59756;SDS011;45631;51.962;5.974;2024-03-07T08:35:34;30.40;;;19.63;;
59756;SDS011;45631;51.962;5.974;2024-03-07T08:38:04;27.20;;;17.77;;
59756;SDS011;45631;51.962;5.974;2024-03-07T08:40:36;28.48;;;18.83;;
59756;SDS011;45631;51.962;5.974;2024-03-07T08:43:05;27.92;;;18.83;;
59756;SDS011;45631;51.962;5.974;2024-03-07T08:45:37;27.92;;;18.08;;
59756;SDS011;45631;51.962;5.974;2024-03-07T08:48:05;26.50;;;17.17;;
59756;SDS011;45631;51.962;5.974;2024-03-07T08:50:36;26.95;;;18.02;;
59756;SDS011;45631;51.962;5.974;2024-03-07T08:53:07;24.88;;;17.13;;
59756;SDS011;45631;51.962;5.974;2024-03-07T08:55:36;26.77;;;17.00;;
59756;SDS011;45631;51.962;5.974;2024-03-07T08:58:05;23.77;;;16.80;;
59756;SDS011;45631;51.962;5.974;2024-03-07T09:00:35;24.55;;;17.17;;
59756;SDS011;45631;51.962;5.974;2024-03-07T09:03:06;25.60;;;17.77;;
59756;SDS011;45631;51.962;5.974;2024-03-07T09:05:39;23.52;;;16.38;;
59756;SDS011;45631;51.962;5.974;2024-03-07T09:08:10;24.73;;;15.80;;
59756;SDS011;45631;51.962;5.974;2024-03-07T09:10:39;24.90;;;16.63;;
59756;SDS011;45631;51.962;5.974;2024-03-07T09:13:12;24.30;;;16.05;;
59756;SDS011;45631;51.962;5.974;2024-03-07T09:15:40;24.15;;;15.38;;
59756;SDS011;45631;51.962;5.974;2024-03-07T09:18:09;23.65;;;15.18;;
59756;SDS011;45631;51.962;5.974;2024-03-07T09:20:37;21.48;;;14.88;;
59756;SDS011;45631;51.962;5.974;2024-03-07T09:23:06;24.98;;;16.00;;
59756;SDS011;45631;51.962;5.974;2024-03-07T09:25:36;23.38;;;15.68;;
59756;SDS011;45631;51.962;5.974;2024-03-07T09:28:04;24.85;;;15.02;;
59756;SDS011;45631;51.962;5.974;2024-03-07T09:30:35;22.58;;;15.30;;
59756;SDS011;45631;51.962;5.974;2024-03-07T09:33:06;23.40;;;15.95;;
59756;SDS011;45631;51.962;5.974;2024-03-07T09:35:38;24.52;;;15.88;;
59756;SDS011;45631;51.962;5.974;2024-03-07T09:38:07;22.60;;;15.55;;
59756;SDS011;45631;51.962;5.974;2024-03-07T09:40:37;24.13;;;16.05;;
59756;SDS011;45631;51.962;5.974;2024-03-07T09:43:07;21.23;;;14.75;;
59756;SDS011;45631;51.962;5.974;2024-03-07T09:45:38;22.67;;;14.82;;
59756;SDS011;45631;51.962;5.974;2024-03-07T09:48:14;22.08;;;15.57;;
59756;SDS011;45631;51.962;5.974;2024-03-07T09:50:44;22.25;;;15.85;;
59756;SDS011;45631;51.962;5.974;2024-03-07T09:53:19;20.90;;;15.05;;
59756;SDS011;45631;51.962;5.974;2024-03-07T09:55:50;21.63;;;15.50;;
59756;SDS011;45631;51.962;5.974;2024-03-07T09:58:19;21.90;;;14.75;;
59756;SDS011;45631;51.962;5.974;2024-03-07T10:00:50;21.45;;;14.80;;
59756;SDS011;45631;51.962;5.974;2024-03-07T10:03:20;20.80;;;14.90;;
59756;SDS011;45631;51.962;5.974;2024-03-07T10:05:50;21.35;;;15.23;;
59756;SDS011;45631;51.962;5.974;2024-03-07T10:08:20;22.45;;;15.82;;
59756;SDS011;45631;51.962;5.974;2024-03-07T10:10:52;24.20;;;15.48;;
59756;SDS011;45631;51.962;5.974;2024-03-07T10:13:22;21.83;;;14.55;;
59756;SDS011;45631;51.962;5.974;2024-03-07T10:15:56;20.73;;;14.68;;
59756;SDS011;45631;51.962;5.974;2024-03-07T10:18:27;21.63;;;14.57;;
59756;SDS011;45631;51.962;5.974;2024-03-07T10:20:57;22.05;;;15.50;;
59756;SDS011;45631;51.962;5.974;2024-03-07T10:23:27;24.52;;;16.27;;
59756;SDS011;45631;51.962;5.974;2024-03-07T10:25:59;21.10;;;14.90;;
59756;SDS011;45631;51.962;5.974;2024-03-07T10:28:30;23.10;;;15.93;;
59756;SDS011;45631;51.962;5.974;2024-03-07T10:31:00;20.05;;;14.90;;
59756;SDS011;45631;51.962;5.974;2024-03-07T10:33:30;21.45;;;15.15;;
59756;SDS011;45631;51.962;5.974;2024-03-07T10:36:01;23.85;;;15.07;;
59756;SDS011;45631;51.962;5.974;2024-03-07T10:38:33;24.30;;;14.87;;
59756;SDS011;45631;51.962;5.974;2024-03-07T10:41:03;21.85;;;14.90;;
59756;SDS011;45631;51.962;5.974;2024-03-07T10:43:35;22.00;;;16.02;;
59756;SDS011;45631;51.962;5.974;2024-03-07T10:46:09;21.63;;;15.43;;
59756;SDS011;45631;51.962;5.974;2024-03-07T10:48:39;21.77;;;14.93;;
59756;SDS011;45631;51.962;5.974;2024-03-07T10:51:11;22.58;;;15.43;;
59756;SDS011;45631;51.962;5.974;2024-03-07T10:53:46;22.40;;;15.43;;
59756;SDS011;45631;51.962;5.974;2024-03-07T10:56:29;22.40;;;14.95;;
59756;SDS011;45631;51.962;5.974;2024-03-07T10:59:11;21.30;;;14.20;;
59756;SDS011;45631;51.962;5.974;2024-03-07T11:01:48;23.58;;;13.52;;
59756;SDS011;45631;51.962;5.974;2024-03-07T11:04:22;22.88;;;15.05;;
59756;SDS011;45631;51.962;5.974;2024-03-07T11:06:51;21.63;;;14.73;;
59756;SDS011;45631;51.962;5.974;2024-03-07T11:09:20;22.85;;;14.77;;
59756;SDS011;45631;51.962;5.974;2024-03-07T11:11:57;21.58;;;14.52;;
59756;SDS011;45631;51.962;5.974;2024-03-07T11:14:30;21.92;;;15.07;;
59756;SDS011;45631;51.962;5.974;2024-03-07T11:17:00;22.30;;;15.40;;
59756;SDS011;45631;51.962;5.974;2024-03-07T11:19:31;21.92;;;14.30;;
59756;SDS011;45631;51.962;5.974;2024-03-07T11:22:04;23.80;;;15.93;;
59756;SDS011;45631;51.962;5.974;2024-03-07T11:24:42;22.75;;;14.73;;
59756;SDS011;45631;51.962;5.974;2024-03-07T11:27:13;22.25;;;14.95;;
59756;SDS011;45631;51.962;5.974;2024-03-07T11:29:43;22.10;;;14.15;;
59756;SDS011;45631;51.962;5.974;2024-03-07T11:32:20;20.10;;;13.77;;
59756;SDS011;45631;51.962;5.974;2024-03-07T11:34:50;22.35;;;14.75;;
59756;SDS011;45631;51.962;5.974;2024-03-07T11:37:37;21.52;;;13.82;;
59756;SDS011;45631;51.962;5.974;2024-03-07T11:40:12;22.58;;;13.93;;
59756;SDS011;45631;51.962;5.974;2024-03-07T11:42:48;22.23;;;14.52;;
59756;SDS011;45631;51.962;5.974;2024-03-07T11:45:17;22.42;;;14.88;;
59756;SDS011;45631;51.962;5.974;2024-03-07T11:47:53;22.13;;;14.10;;
59756;SDS011;45631;51.962;5.974;2024-03-07T11:50:27;20.15;;;14.00;;
59756;SDS011;45631;51.962;5.974;2024-03-07T11:52:55;20.75;;;14.10;;
59756;SDS011;45631;51.962;5.974;2024-03-07T11:55:26;21.27;;;14.35;;
59756;SDS011;45631;51.962;5.974;2024-03-07T11:57:57;24.58;;;14.98;;
59756;SDS011;45631;51.962;5.974;2024-03-07T12:00:27;19.43;;;13.97;;
59756;SDS011;45631;51.962;5.974;2024-03-07T12:03:01;20.63;;;13.38;;
59756;SDS011;45631;51.962;5.974;2024-03-07T12:05:32;19.65;;;12.85;;
59756;SDS011;45631;51.962;5.974;2024-03-07T12:08:01;18.90;;;13.38;;
59756;SDS011;45631;51.962;5.974;2024-03-07T12:10:32;20.88;;;13.32;;
59756;SDS011;45631;51.962;5.974;2024-03-07T12:13:02;21.38;;;13.88;;
59756;SDS011;45631;51.962;5.974;2024-03-07T12:15:31;19.73;;;12.82;;
59756;SDS011;45631;51.962;5.974;2024-03-07T12:18:01;17.42;;;12.30;;
59756;SDS011;45631;51.962;5.974;2024-03-07T12:20:39;19.48;;;12.48;;
59756;SDS011;45631;51.962;5.974;2024-03-07T12:23:12;18.55;;;12.45;;
59756;SDS011;45631;51.962;5.974;2024-03-07T12:25:43;19.60;;;13.55;;
59756;SDS011;45631;51.962;5.974;2024-03-07T12:28:13;18.60;;;12.20;;
59756;SDS011;45631;51.962;5.974;2024-03-07T12:30:47;19.73;;;14.20;;
59756;SDS011;45631;51.962;5.974;2024-03-07T12:33:19;20.80;;;13.20;;
59756;SDS011;45631;51.962;5.974;2024-03-07T12:35:50;19.42;;;13.65;;
59756;SDS011;45631;51.962;5.974;2024-03-07T12:38:19;19.45;;;13.27;;
59756;SDS011;45631;51.962;5.974;2024-03-07T12:41:01;18.83;;;12.82;;
59756;SDS011;45631;51.962;5.974;2024-03-07T12:43:36;17.45;;;13.35;;
59756;SDS011;45631;51.962;5.974;2024-03-07T12:46:05;18.80;;;13.77;;
59756;SDS011;45631;51.962;5.974;2024-03-07T12:48:35;19.20;;;14.35;;
59756;SDS011;45631;51.962;5.974;2024-03-07T12:51:05;20.13;;;13.73;;
59756;SDS011;45631;51.962;5.974;2024-03-07T12:53:34;21.30;;;14.90;;
59756;SDS011;45631;51.962;5.974;2024-03-07T12:56:03;21.20;;;14.85;;
59756;SDS011;45631;51.962;5.974;2024-03-07T12:58:31;20.38;;;14.07;;
59756;SDS011;45631;51.962;5.974;2024-03-07T13:01:01;20.05;;;14.50;;
59756;SDS011;45631;51.962;5.974;2024-03-07T13:03:29;20.15;;;14.43;;
59756;SDS011;45631;51.962;5.974;2024-03-07T13:05:58;20.40;;;14.50;;
59756;SDS011;45631;51.962;5.974;2024-03-07T13:08:28;20.42;;;15.63;;
59756;SDS011;45631;51.962;5.974;2024-03-07T13:10:58;20.38;;;15.40;;
59756;SDS011;45631;51.962;5.974;2024-03-07T13:13:28;19.48;;;14.88;;
59756;SDS011;45631;51.962;5.974;2024-03-07T13:15:57;19.45;;;14.57;;
59756;SDS011;45631;51.962;5.974;2024-03-07T13:18:28;20.58;;;15.05;;
59756;SDS011;45631;51.962;5.974;2024-03-07T13:21:02;20.20;;;13.88;;
59756;SDS011;45631;51.962;5.974;2024-03-07T13:23:34;19.73;;;13.93;;
59756;SDS011;45631;51.962;5.974;2024-03-07T13:26:03;20.80;;;15.25;;
59756;SDS011;45631;51.962;5.974;2024-03-07T13:28:35;19.90;;;14.27;;
59756;SDS011;45631;51.962;5.974;2024-03-07T13:31:08;18.33;;;13.63;;
59756;SDS011;45631;51.962;5.974;2024-03-07T13:33:39;19.27;;;14.27;;
59756;SDS011;45631;51.962;5.974;2024-03-07T13:36:09;18.15;;;13.27;;
59756;SDS011;45631;51.962;5.974;2024-03-07T13:38:38;18.38;;;13.88;;
59756;SDS011;45631;51.962;5.974;2024-03-07T13:41:07;19.27;;;14.23;;
59756;SDS011;45631;51.962;5.974;2024-03-07T13:43:38;20.50;;;13.95;;
59756;SDS011;45631;51.962;5.974;2024-03-07T13:46:07;20.80;;;13.90;;
59756;SDS011;45631;51.962;5.974;2024-03-07T13:48:35;19.40;;;13.93;;
59756;SDS011;45631;51.962;5.974;2024-03-07T13:51:05;18.85;;;12.93;;
59756;SDS011;45631;51.962;5.974;2024-03-07T13:53:35;21.45;;;14.65;;
59756;SDS011;45631;51.962;5.974;2024-03-07T13:56:28;19.80;;;13.40;;
59756;SDS011;45631;51.962;5.974;2024-03-07T14:02:26;19.00;;;13.07;;
59756;SDS011;45631;51.962;5.974;2024-03-07T14:05:38;18.27;;;13.38;;
59756;SDS011;45631;51.962;5.974;2024-03-07T14:08:26;17.65;;;12.93;;
59756;SDS011;45631;51.962;5.974;2024-03-07T14:14:15;20.48;;;13.75;;
59756;SDS011;45631;51.962;5.974;2024-03-07T14:17:31;21.23;;;13.90;;
59756;SDS011;45631;51.962;5.974;2024-03-07T14:20:42;20.95;;;12.75;;
59756;SDS011;45631;51.962;5.974;2024-03-07T14:23:30;19.40;;;13.50;;
59756;SDS011;45631;51.962;5.974;2024-03-07T14:29:17;19.08;;;13.32;;
59756;SDS011;45631;51.962;5.974;2024-03-07T14:31:55;20.58;;;13.85;;
59756;SDS011;45631;51.962;5.974;2024-03-07T14:34:29;19.08;;;13.18;;
59756;SDS011;45631;51.962;5.974;2024-03-07T14:37:09;20.70;;;13.27;;
59756;SDS011;45631;51.962;5.974;2024-03-07T14:39:48;20.17;;;14.40;;
59756;SDS011;45631;51.962;5.974;2024-03-07T14:42:20;19.75;;;13.50;;
59756;SDS011;45631;51.962;5.974;2024-03-07T14:44:49;23.02;;;14.65;;
59756;SDS011;45631;51.962;5.974;2024-03-07T14:47:19;20.55;;;13.27;;
59756;SDS011;45631;51.962;5.974;2024-03-07T14:49:48;18.45;;;12.90;;